SBOSBO GNB / LFLS
Speedbird OnlineSpeedbird Online GNB / LFLS

Grenoble-Isère Airport
21:52 6.4°C

Location Grenoble, France
Latitude: 45.36289978027344
Longitude: 5.329370021820068
Local Time 21:52 on 20 Apr 2024
UTC +2 hours (Europe/Paris)
Currency £1 equals EUR 1.16
METAR LFLS 201930Z AUTO 35015KT CAVOK 07/01 Q1020
TAF TAF LFLS 201400Z 2015/2115 36012KT 9999 FEW050 TEMPO 2015/2016 36015G25KT TEMPO 2105/2107 VRB02KT BKN005 TEMPO 2108/2109 BKN012 TEMPO 2112/2115 FEW040TCU PROB40 TEMPO 2112/2115 34015G25KT -SHRA SCT040TCU BKN050
Weather As Of 20 Apr 2024 21:52
Description Clear sky
Wind 28 km/h from North (350°)
Cloud Cover 0%
Precipitation Rain: none, Snow: none
Sunrise 06:44
Sunset 20:30
NOTAM 10 active NOTAM
Rotations During the last 90 days there were
30 flights from LHR
22 flights from LGW
1 flights from MRS
33 flights to LHR
28 flights to LGW
Web Wikipedia
Codes IATA: GNB
ICAO: LFLS
Altitude 397 Meter / 1302 Feet
Distance 784 KM / 487 Miles
from London.
Runways
RunwayLength (m)Surface
093050Asphalt
273050Asphalt
Radio
TypeDescriptionFrequency
APPGRENOBLE APP119.3
ATISGRENOBLE ATIS133.85
GNDGRENOBLE GND121.925
TWRGRENOBLE TWR119.3
Live ATC



Support Speedbird Online

© 2017-2024 Speedbird Online